createdAt,value
2022-12-11T00:00:25.315Z,96134.59
2022-12-11T00:02:57.159Z,96130.22
2022-12-11T00:05:28.761Z,96132.34
2022-12-11T00:08:00.459Z,96133.81
2022-12-11T00:10:36.241Z,96134.91
2022-12-11T00:13:09.498Z,96128.56
2022-12-11T00:15:41.089Z,96135.38
2022-12-11T00:18:13.823Z,96127.84
2022-12-11T00:20:45.433Z,96123.94
2022-12-11T00:23:17.122Z,96119.84
2022-12-11T00:25:48.650Z,96129.28
2022-12-11T00:28:20.188Z,96130.34
2022-12-11T00:30:51.712Z,96133.47
2022-12-11T00:33:23.280Z,96147.19
2022-12-11T00:35:54.815Z,96143.72
2022-12-11T00:38:27.238Z,96150.09
2022-12-11T00:40:59.807Z,96144.53
2022-12-11T00:43:31.445Z,96143.25
2022-12-11T00:46:03.783Z,96137.38
2022-12-11T00:48:35.405Z,96141.38
2022-12-11T00:51:07.197Z,96141.50
2022-12-11T00:53:39.632Z,96131.84
2022-12-11T00:56:18.081Z,96138.47
2022-12-11T00:58:50.215Z,96140.97
2022-12-11T01:01:24.183Z,96146.41
2022-12-11T01:03:56.752Z,96142.81
2022-12-11T01:06:29.354Z,96140.19
2022-12-11T01:09:00.922Z,96143.72
2022-12-11T01:11:32.448Z,96132.69
2022-12-11T01:14:04.959Z,96133.47
2022-12-11T01:16:37.056Z,96141.00
2022-12-11T01:19:08.821Z,96146.38
2022-12-11T01:21:40.462Z,96162.19
2022-12-11T01:24:12.024Z,96169.56
2022-12-11T01:26:43.538Z,96173.75
2022-12-11T01:29:15.426Z,96170.00
2022-12-11T01:31:46.942Z,96170.47
2022-12-11T01:34:18.478Z,96171.19
2022-12-11T01:36:52.249Z,96169.47
2022-12-11T01:39:23.941Z,96171.88
2022-12-11T01:42:00.397Z,96179.13
2022-12-11T01:44:31.914Z,96171.81
2022-12-11T01:47:03.520Z,96174.50
2022-12-11T01:49:36.034Z,96170.56
2022-12-11T01:52:19.513Z,96163.88
2022-12-11T01:54:51.375Z,96162.50
2022-12-11T01:57:23.015Z,96162.88
2022-12-11T01:59:56.016Z,96160.56
2022-12-11T02:02:31.815Z,96152.81
2022-12-11T02:05:06.063Z,96156.13
2022-12-11T02:07:42.593Z,96162.53
2022-12-11T02:10:15.334Z,96158.78
2022-12-11T02:13:01.310Z,96167.41
2022-12-11T02:15:51.731Z,96168.19
2022-12-11T02:18:38.879Z,96171.81
2022-12-11T02:21:24.508Z,96178.31
2022-12-11T02:24:17.777Z,96179.00
2022-12-11T02:27:12.045Z,96182.47
2022-12-11T02:30:03.963Z,96180.78
2022-12-11T02:32:45.480Z,96185.22
2022-12-11T02:35:33.356Z,96176.56
2022-12-11T02:38:19.505Z,96172.78
2022-12-11T02:40:55.467Z,96178.63
2022-12-11T02:43:31.397Z,96179.25
2022-12-11T02:46:07.878Z,96168.31
2022-12-11T02:48:42.718Z,96166.78
2022-12-11T02:51:18.498Z,96178.75
2022-12-11T02:53:54.688Z,96178.78
2022-12-11T02:56:36.926Z,96187.28
2022-12-11T02:59:18.992Z,96182.69
2022-12-11T03:01:50.851Z,96189.88
2022-12-11T03:04:22.624Z,96183.78
2022-12-11T03:06:59.817Z,96196.34
2022-12-11T03:09:31.983Z,96193.28
2022-12-11T03:12:04.011Z,96182.00
2022-12-11T03:14:39.148Z,96181.59
2022-12-11T03:17:18.933Z,96176.28
2022-12-11T03:20:01.281Z,96167.38
2022-12-11T03:22:46.160Z,96163.28
2022-12-11T03:25:44.434Z,96176.00
2022-12-11T03:28:34.626Z,96175.56
2022-12-11T03:31:18.112Z,96179.47
2022-12-11T03:33:55.782Z,96176.94
2022-12-11T03:36:36.127Z,96176.34
2022-12-11T03:39:32.333Z,96183.84
2022-12-11T03:42:10.212Z,96186.47
2022-12-11T03:44:47.746Z,96181.84
2022-12-11T03:47:26.746Z,96182.34
2022-12-11T03:50:02.014Z,96181.28
2022-12-11T03:52:38.625Z,96181.88
2022-12-11T03:55:17.541Z,96189.41
2022-12-11T03:57:49.647Z,96182.44
2022-12-11T04:00:22.090Z,96185.31
2022-12-11T04:02:53.951Z,96182.47
2022-12-11T04:05:25.555Z,96179.19
2022-12-11T04:07:57.312Z,96180.28
2022-12-11T04:10:29.063Z,96177.97
2022-12-11T04:13:03.862Z,96184.50
2022-12-11T04:15:37.392Z,96183.22
2022-12-11T04:18:10.332Z,96184.88
2022-12-11T04:20:41.976Z,96184.22
2022-12-11T04:23:16.948Z,96180.28
2022-12-11T04:25:48.597Z,96182.25
2022-12-11T04:28:20.330Z,96173.28
2022-12-11T04:30:51.957Z,96174.78
2022-12-11T04:33:23.659Z,96177.47
2022-12-11T04:35:58.643Z,96169.91
2022-12-11T04:38:30.795Z,96169.22
2022-12-11T04:41:14.296Z,96170.50
2022-12-11T04:43:45.964Z,96172.78
2022-12-11T04:46:21.096Z,96172.47
2022-12-11T04:48:57.283Z,96176.91
2022-12-11T04:51:30.040Z,96177.38
2022-12-11T04:54:01.734Z,96170.69
2022-12-11T04:56:33.447Z,96174.78
2022-12-11T04:59:05.081Z,96171.75
2022-12-11T05:01:36.923Z,96178.44
2022-12-11T05:04:08.590Z,96174.00
2022-12-11T05:06:40.392Z,96171.84
2022-12-11T05:09:13.288Z,96171.22
2022-12-11T05:11:45.003Z,96161.81
2022-12-11T05:14:16.913Z,96165.78
2022-12-11T05:16:48.842Z,96158.59
2022-12-11T05:19:20.466Z,96155.41
2022-12-11T05:21:53.026Z,96159.78
2022-12-11T05:24:24.699Z,96156.53
2022-12-11T05:26:56.354Z,96164.22
2022-12-11T05:29:28.239Z,96170.91
2022-12-11T05:31:59.879Z,96175.78
2022-12-11T05:34:31.615Z,96169.31
2022-12-11T05:37:03.489Z,96162.75
2022-12-11T05:39:35.276Z,96164.22
2022-12-11T05:42:06.883Z,96167.19
2022-12-11T05:44:38.585Z,96165.41
2022-12-11T05:47:10.490Z,96162.84
2022-12-11T05:49:42.167Z,96168.84
2022-12-11T05:52:13.856Z,96155.75
2022-12-11T05:54:49.235Z,96155.66
2022-12-11T05:57:21.108Z,96155.19
2022-12-11T05:59:52.786Z,96146.09
2022-12-11T06:02:24.654Z,96142.59
2022-12-11T06:04:56.747Z,96152.03
2022-12-11T06:07:28.499Z,96142.31
2022-12-11T06:10:00.182Z,96142.28
2022-12-11T06:12:31.766Z,96139.97
2022-12-11T06:15:03.666Z,96133.38
2022-12-11T06:17:35.746Z,96136.25
2022-12-11T06:20:07.678Z,96145.06
2022-12-11T06:22:39.341Z,96145.84
2022-12-11T06:25:11.261Z,96150.59
2022-12-11T06:27:43.269Z,96153.25
2022-12-11T06:30:15.265Z,96154.06
2022-12-11T06:32:47.335Z,96161.28
2022-12-11T06:35:19.508Z,96158.13
2022-12-11T06:37:51.329Z,96153.50
2022-12-11T06:40:23.056Z,96149.28
2022-12-11T06:42:55.198Z,96155.00
2022-12-11T06:45:27.067Z,96159.75
2022-12-11T06:47:58.888Z,96157.88
2022-12-11T06:50:30.559Z,96164.81
2022-12-11T06:53:02.075Z,96157.94
2022-12-11T06:55:37.405Z,96155.97
2022-12-11T06:58:10.456Z,96156.94
2022-12-11T07:00:42.180Z,96159.75
2022-12-11T07:03:13.814Z,96159.22
2022-12-11T07:05:45.451Z,96160.38
2022-12-11T07:08:17.064Z,96157.94
2022-12-11T07:10:48.662Z,96154.28
2022-12-11T07:13:20.177Z,96156.19
2022-12-11T07:15:51.675Z,96154.47
2022-12-11T07:18:23.238Z,96146.56
2022-12-11T07:20:54.826Z,96147.94
2022-12-11T07:23:27.827Z,96147.81
2022-12-11T07:25:59.450Z,96153.78
2022-12-11T07:28:31.077Z,96155.19
2022-12-11T07:31:11.757Z,96160.81
2022-12-11T07:33:43.853Z,96164.88
2022-12-11T07:36:15.971Z,96174.94
2022-12-11T07:38:48.337Z,96167.84
2022-12-11T07:41:20.171Z,96167.88
2022-12-11T07:44:00.894Z,96162.63
2022-12-11T07:46:34.364Z,96159.50
2022-12-11T07:49:06.907Z,96151.22
2022-12-11T07:51:39.210Z,96156.56
2022-12-11T07:54:17.457Z,96154.81
2022-12-11T07:56:53.413Z,96155.34
2022-12-11T07:59:25.402Z,96150.50
2022-12-11T08:01:57.013Z,96150.31
2022-12-11T08:04:28.587Z,96151.69
2022-12-11T08:07:00.106Z,96149.34
2022-12-11T08:09:31.765Z,96147.31
2022-12-11T08:12:03.505Z,96151.91
2022-12-11T08:14:35.216Z,96153.78
2022-12-11T08:17:06.903Z,96158.00
2022-12-11T08:19:38.548Z,96151.31
2022-12-11T08:22:10.501Z,96143.38
2022-12-11T08:24:42.036Z,96142.41
2022-12-11T08:27:13.617Z,96143.38
2022-12-11T08:29:45.268Z,96142.50
2022-12-11T08:32:16.846Z,96144.69
2022-12-11T08:34:51.415Z,96147.38
2022-12-11T08:37:22.976Z,96144.06
2022-12-11T08:39:56.693Z,96142.38
2022-12-11T08:42:28.241Z,96144.25
2022-12-11T08:45:00.036Z,96148.53
2022-12-11T08:47:31.733Z,96146.16
2022-12-11T08:50:04.237Z,96151.72
2022-12-11T08:52:35.789Z,96145.28
2022-12-11T08:55:07.823Z,96136.88
2022-12-11T08:57:39.442Z,96142.41
2022-12-11T09:00:13.427Z,96134.94
2022-12-11T09:02:45.077Z,96131.03
2022-12-11T09:05:17.108Z,96128.63
2022-12-11T09:07:48.799Z,96126.03
2022-12-11T09:10:20.532Z,96128.94
2022-12-11T09:12:52.148Z,96123.88
2022-12-11T09:15:23.687Z,96131.47
2022-12-11T09:17:55.602Z,96114.59
2022-12-11T09:20:27.584Z,96119.91
2022-12-11T09:22:59.455Z,96118.75
2022-12-11T09:25:31.021Z,96107.47
2022-12-11T09:28:02.779Z,96110.81
2022-12-11T09:30:34.612Z,96106.66
2022-12-11T09:33:06.281Z,96112.56
2022-12-11T09:35:37.866Z,96123.44
2022-12-11T09:38:09.844Z,96109.59
2022-12-11T09:40:42.644Z,96117.50
2022-12-11T09:43:52.794Z,96124.44
2022-12-11T09:46:26.866Z,96119.59
2022-12-11T09:49:04.405Z,96124.31
2022-12-11T09:51:49.077Z,96126.03
2022-12-11T09:54:20.776Z,96129.69
2022-12-11T09:57:06.662Z,96126.09
2022-12-11T10:00:05.172Z,96124.81
2022-12-11T10:03:15.023Z,96127.50
2022-12-11T10:06:11.324Z,96130.16
2022-12-11T10:08:53.676Z,96125.75
2022-12-11T10:12:10.325Z,96130.50
2022-12-11T10:15:04.886Z,96123.56
2022-12-11T10:17:39.361Z,96125.72
2022-12-11T10:20:46.196Z,96115.50
2022-12-11T10:23:36.643Z,96112.91
2022-12-11T10:26:19.977Z,96118.66
2022-12-11T10:28:51.699Z,96110.16
2022-12-11T10:31:37.985Z,96099.94
2022-12-11T10:34:31.632Z,96112.66
2022-12-11T10:37:03.937Z,96107.13
2022-12-11T10:39:35.513Z,96111.56
2022-12-11T10:42:19.610Z,96103.19
2022-12-11T10:45:05.704Z,96100.72
2022-12-11T10:47:37.466Z,96092.28
2022-12-11T10:50:24.212Z,96090.53
2022-12-11T10:52:56.051Z,96082.94
2022-12-11T10:55:38.394Z,96095.53
2022-12-11T10:58:19.682Z,96096.13
2022-12-11T11:01:14.076Z,96077.06
2022-12-11T11:04:06.817Z,96087.91
2022-12-11T11:06:38.486Z,96077.59
2022-12-11T11:09:30.877Z,96081.69
2022-12-11T11:12:07.794Z,96074.69
2022-12-11T11:14:39.652Z,96069.44
2022-12-11T11:17:16.583Z,96075.28
2022-12-11T11:19:49.444Z,96069.31
2022-12-11T11:22:21.336Z,96065.19
2022-12-11T11:24:59.062Z,96073.97
2022-12-11T11:27:41.946Z,96075.81
2022-12-11T11:30:26.822Z,96067.28
2022-12-11T11:33:03.724Z,96060.13
2022-12-11T11:35:35.849Z,96060.59
2022-12-11T11:38:25.019Z,96062.63
2022-12-11T11:41:19.902Z,96057.19
2022-12-11T11:43:59.190Z,96063.09
2022-12-11T11:46:42.388Z,96060.56
2022-12-11T11:49:35.852Z,96067.16
2022-12-11T11:52:30.619Z,96063.72
2022-12-11T11:55:21.740Z,96056.97
2022-12-11T11:58:05.849Z,96050.28
2022-12-11T12:00:37.676Z,96049.63
2022-12-11T12:03:15.205Z,96040.94
2022-12-11T12:06:25.784Z,96042.09
2022-12-11T12:09:22.385Z,96027.44
2022-12-11T12:12:22.795Z,96018.75
2022-12-11T12:15:23.296Z,96028.34
2022-12-11T12:18:01.899Z,96017.69
2022-12-11T12:20:59.655Z,96031.53
2022-12-11T12:24:02.701Z,96032.72
2022-12-11T12:26:39.674Z,96031.09
2022-12-11T12:29:48.771Z,96025.97
2022-12-11T12:32:25.278Z,96035.06
2022-12-11T12:35:09.658Z,96023.09
2022-12-11T12:38:03.410Z,96016.66
2022-12-11T12:40:51.198Z,96016.00
2022-12-11T12:43:47.242Z,96020.97
2022-12-11T12:46:55.814Z,96012.41
2022-12-11T12:49:44.599Z,96014.19
2022-12-11T12:52:31.437Z,96017.22
2022-12-11T12:55:19.539Z,96013.09
2022-12-11T12:57:55.955Z,96014.56
2022-12-11T13:00:30.673Z,96007.50
2022-12-11T13:03:15.957Z,96014.91
2022-12-11T13:06:10.482Z,96013.94
2022-12-11T13:08:48.490Z,96016.06
2022-12-11T13:11:32.309Z,96013.09
2022-12-11T13:14:08.125Z,96004.00
2022-12-11T13:16:43.940Z,96003.38
2022-12-11T13:19:24.846Z,96000.94
2022-12-11T13:22:20.401Z,95997.56
2022-12-11T13:24:52.419Z,95997.84
2022-12-11T13:27:36.174Z,96001.31
2022-12-11T13:30:23.006Z,95998.44
2022-12-11T13:32:54.562Z,95992.84
2022-12-11T13:35:26.961Z,95990.28
2022-12-11T13:38:14.713Z,95987.63
2022-12-11T13:40:56.125Z,95989.00
2022-12-11T13:43:33.081Z,95984.34
2022-12-11T13:46:10.516Z,95985.22
2022-12-11T13:49:04.806Z,95990.91
2022-12-11T13:51:36.412Z,96002.25
2022-12-11T13:54:18.821Z,95989.81
2022-12-11T13:57:15.334Z,95994.56
2022-12-11T13:59:55.521Z,95994.13
2022-12-11T14:02:40.943Z,95985.13
2022-12-11T14:05:13.663Z,95988.41
2022-12-11T14:07:58.399Z,95999.94
2022-12-11T14:10:32.536Z,95992.59
2022-12-11T14:13:14.531Z,96003.25
2022-12-11T14:15:46.790Z,95995.63
2022-12-11T14:18:23.760Z,96001.31
2022-12-11T14:20:58.930Z,96004.00
2022-12-11T14:23:33.644Z,96017.00
2022-12-11T14:26:23.493Z,96021.25
2022-12-11T14:28:55.443Z,96023.16
2022-12-11T14:31:42.595Z,96019.47
2022-12-11T14:34:37.123Z,96022.06
2022-12-11T14:37:10.953Z,96021.75
2022-12-11T14:40:06.502Z,96022.75
2022-12-11T14:43:00.021Z,96019.69
2022-12-11T14:45:40.412Z,96016.81
2022-12-11T14:49:04.575Z,96021.97
2022-12-11T14:51:41.740Z,96025.06
2022-12-11T14:54:23.855Z,96021.16
2022-12-11T14:56:56.790Z,96026.22
2022-12-11T14:59:32.474Z,96020.28
2022-12-11T15:02:24.237Z,96025.19
2022-12-11T15:05:18.552Z,96025.97
2022-12-11T15:08:11.337Z,96032.56
2022-12-11T15:11:06.072Z,96032.34
2022-12-11T15:14:00.960Z,96031.16
2022-12-11T15:16:39.937Z,96036.59
2022-12-11T15:19:34.483Z,96034.78
2022-12-11T15:22:09.708Z,96039.63
2022-12-11T15:24:44.857Z,96033.34
2022-12-11T15:27:37.638Z,96043.50
2022-12-11T15:30:17.995Z,96045.47
2022-12-11T15:32:49.493Z,96042.47
2022-12-11T15:35:24.547Z,96035.91
2022-12-11T15:37:59.411Z,96034.09
2022-12-11T15:40:31.222Z,96045.94
2022-12-11T15:43:02.898Z,96041.13
2022-12-11T15:45:35.613Z,96049.97
2022-12-11T15:48:10.792Z,96047.84
2022-12-11T15:50:43.332Z,96047.59
2022-12-11T15:53:14.888Z,96052.84
2022-12-11T15:55:46.954Z,96048.34
2022-12-11T15:58:21.551Z,96052.19
2022-12-11T16:00:53.884Z,96059.31
2022-12-11T16:03:25.846Z,96054.63
2022-12-11T16:05:57.633Z,96052.03
2022-12-11T16:08:29.308Z,96053.00
2022-12-11T16:11:00.857Z,96047.75
2022-12-11T16:13:32.389Z,96055.88
2022-12-11T16:16:04.222Z,96054.75
2022-12-11T16:18:35.773Z,96058.91
2022-12-11T16:21:07.395Z,96059.63
2022-12-11T16:23:38.926Z,96068.84
2022-12-11T16:26:10.657Z,96065.44
2022-12-11T16:28:42.671Z,96070.75
2022-12-11T16:31:15.432Z,96071.78
2022-12-11T16:33:47.160Z,96077.53
2022-12-11T16:36:20.335Z,96073.75
2022-12-11T16:38:54.261Z,96062.63
2022-12-11T16:41:26.086Z,96068.59
2022-12-11T16:43:57.670Z,96072.72
2022-12-11T16:46:29.309Z,96067.31
2022-12-11T16:49:00.849Z,96068.63
2022-12-11T16:51:32.353Z,96057.56
2022-12-11T16:54:04.113Z,96061.66
2022-12-11T16:56:35.850Z,96062.47
2022-12-11T16:59:07.700Z,96060.78
2022-12-11T17:01:39.817Z,96068.84
2022-12-11T17:04:11.425Z,96070.53
2022-12-11T17:06:42.936Z,96070.13
2022-12-11T17:09:14.427Z,96072.56
2022-12-11T17:11:45.942Z,96084.81
2022-12-11T17:14:17.454Z,96086.78
2022-12-11T17:16:49.683Z,96087.53
2022-12-11T17:19:21.246Z,96089.50
2022-12-11T17:21:52.957Z,96081.06
2022-12-11T17:24:24.521Z,96088.31
2022-12-11T17:26:56.482Z,96089.00
2022-12-11T17:29:28.337Z,96089.06
2022-12-11T17:31:59.898Z,96080.75
2022-12-11T17:34:37.566Z,96085.53
2022-12-11T17:37:09.782Z,96077.47
2022-12-11T17:39:41.350Z,96081.06
2022-12-11T17:42:13.292Z,96081.09
2022-12-11T17:44:44.916Z,96079.56
2022-12-11T17:47:16.505Z,96076.84
2022-12-11T17:49:48.049Z,96080.00
2022-12-11T17:52:19.651Z,96075.13
2022-12-11T17:54:52.628Z,96081.88
2022-12-11T17:57:24.214Z,96083.47
2022-12-11T17:59:55.851Z,96078.16
2022-12-11T18:02:27.792Z,96083.94
2022-12-11T18:04:59.337Z,96086.09
2022-12-11T18:07:30.889Z,96077.31
2022-12-11T18:10:02.520Z,96075.13
2022-12-11T18:12:34.104Z,96080.91
2022-12-11T18:15:06.230Z,96076.19
2022-12-11T18:17:38.049Z,96079.28
2022-12-11T18:20:15.124Z,96084.72
2022-12-11T18:22:46.901Z,96082.53
2022-12-11T18:25:26.335Z,96081.81
2022-12-11T18:27:58.502Z,96080.97
2022-12-11T18:30:30.109Z,96082.56
2022-12-11T18:33:02.422Z,96085.56
2022-12-11T18:35:34.428Z,96079.34
2022-12-11T18:38:06.234Z,96084.03
2022-12-11T18:40:38.576Z,96091.69
2022-12-11T18:43:10.213Z,96087.31
2022-12-11T18:45:43.014Z,96091.91
2022-12-11T18:48:14.952Z,96094.69
2022-12-11T18:50:49.225Z,96091.97
2022-12-11T18:53:20.918Z,96101.09
2022-12-11T18:55:57.119Z,96094.19
2022-12-11T18:58:31.944Z,96100.25
2022-12-11T19:01:10.004Z,96094.31
2022-12-11T19:03:41.687Z,96095.38
2022-12-11T19:06:16.501Z,96096.38
2022-12-11T19:08:48.381Z,96105.59
2022-12-11T19:11:23.770Z,96103.91
2022-12-11T19:13:57.143Z,96103.06
2022-12-11T19:16:32.798Z,96099.44
2022-12-11T19:19:16.563Z,96105.69
2022-12-11T19:21:50.064Z,96097.56
2022-12-11T19:24:23.151Z,96100.63
2022-12-11T19:26:55.366Z,96100.38
2022-12-11T19:29:30.636Z,96102.13
2022-12-11T19:32:03.790Z,96105.09
2022-12-11T19:34:36.087Z,96098.84
2022-12-11T19:37:08.634Z,96100.09
2022-12-11T19:39:40.614Z,96101.69
2022-12-11T19:42:12.542Z,96098.00
2022-12-11T19:44:44.357Z,96093.25
2022-12-11T19:47:19.049Z,96101.91
2022-12-11T19:49:50.943Z,96094.19
2022-12-11T19:52:22.716Z,96096.69
2022-12-11T19:54:54.610Z,96097.94
2022-12-11T19:57:26.405Z,96098.84
2022-12-11T19:59:58.990Z,96097.97
2022-12-11T20:02:31.973Z,96105.22
2022-12-11T20:05:03.893Z,96114.97
2022-12-11T20:07:35.976Z,96108.28
2022-12-11T20:10:08.188Z,96101.88
2022-12-11T20:12:43.121Z,96106.19
2022-12-11T20:15:14.999Z,96109.13
2022-12-11T20:17:47.066Z,96110.06
2022-12-11T20:20:18.888Z,96114.16
2022-12-11T20:22:56.054Z,96108.00
2022-12-11T20:25:28.279Z,96111.81
2022-12-11T20:27:59.838Z,96104.22
2022-12-11T20:30:31.462Z,96097.44
2022-12-11T20:33:03.145Z,96097.94
2022-12-11T20:35:34.712Z,96098.34
2022-12-11T20:38:06.247Z,96097.53
2022-12-11T20:40:37.853Z,96094.09
2022-12-11T20:43:09.593Z,96102.00
2022-12-11T20:45:46.595Z,96089.81
2022-12-11T20:48:18.246Z,96096.03
2022-12-11T20:50:49.829Z,96095.69
2022-12-11T20:53:21.355Z,96088.28
2022-12-11T20:55:52.842Z,96088.88
2022-12-11T20:58:24.457Z,96090.78
2022-12-11T21:00:56.027Z,96093.47
2022-12-11T21:03:27.660Z,96081.28
2022-12-11T21:05:59.286Z,96090.16
2022-12-11T21:08:30.878Z,96087.94
2022-12-11T21:11:05.937Z,96090.63
2022-12-11T21:13:37.492Z,96097.25
2022-12-11T21:16:09.910Z,96087.00
2022-12-11T21:18:41.565Z,96087.38
2022-12-11T21:21:13.711Z,96082.66
2022-12-11T21:23:45.297Z,96082.28
2022-12-11T21:26:18.356Z,96074.59
2022-12-11T21:28:50.643Z,96078.16
2022-12-11T21:31:22.304Z,96083.75
2022-12-11T21:33:53.843Z,96082.38
2022-12-11T21:36:25.713Z,96090.00
2022-12-11T21:38:59.215Z,96083.75
2022-12-11T21:41:30.842Z,96083.97
2022-12-11T21:45:14.459Z,96084.66
2022-12-11T21:46:54.058Z,96091.47
2022-12-11T21:49:25.647Z,96091.56
2022-12-11T21:51:57.236Z,96084.66
2022-12-11T21:54:28.836Z,96094.50
2022-12-11T21:57:00.543Z,96092.91
2022-12-11T21:59:32.161Z,96098.38
2022-12-11T22:02:03.839Z,96087.09
2022-12-11T22:04:35.400Z,96094.41
2022-12-11T22:07:06.996Z,96094.59
2022-12-11T22:09:38.608Z,96103.81
2022-12-11T22:12:22.505Z,96091.81
2022-12-11T22:14:54.211Z,96092.72
2022-12-11T22:17:25.791Z,96094.97
2022-12-11T22:19:57.346Z,96102.38
2022-12-11T22:22:29.011Z,96102.59
2022-12-11T22:25:00.595Z,96107.25
2022-12-11T22:27:32.150Z,96100.81
2022-12-11T22:30:04.706Z,96100.69
2022-12-11T22:32:37.083Z,96097.72
2022-12-11T22:35:09.860Z,96094.00
2022-12-11T22:37:41.720Z,96098.56
2022-12-11T22:40:13.240Z,96103.91
2022-12-11T22:42:44.857Z,96093.06
2022-12-11T22:45:16.476Z,96099.28
2022-12-11T22:47:48.025Z,96089.88
2022-12-11T22:50:19.619Z,96091.00
2022-12-11T22:52:51.199Z,96097.09
2022-12-11T22:55:22.789Z,96097.56
2022-12-11T22:57:54.405Z,96100.19
